createdAt,value
2018-04-07T10:39:50.944Z,7.40
2018-04-07T10:40:50.904Z,7.70
2018-04-07T10:41:50.947Z,9.70
2018-04-07T10:42:51.035Z,19.90
2018-04-07T10:43:50.863Z,20.50
2018-04-07T10:44:50.905Z,19.20
2018-04-07T10:45:50.837Z,8.90
2018-04-07T10:46:50.819Z,8.70
2018-04-07T10:47:53.276Z,9.60
2018-04-07T10:48:50.836Z,10.10
2018-04-07T10:49:50.787Z,7.60
2018-04-07T10:50:53.051Z,7.30
2018-04-07T10:51:50.748Z,8.30
2018-04-07T10:52:50.734Z,8.10
2018-04-07T10:55:13.558Z,8.80
2018-04-07T10:56:22.570Z,8.50
2018-04-07T10:58:07.226Z,8.80
2018-04-07T11:00:29.397Z,9.10
2018-04-07T11:01:29.491Z,8.10
2018-04-07T11:02:29.374Z,7.80
2018-04-07T11:05:01.026Z,9.10
2018-04-07T11:05:51.383Z,9.10
2018-04-07T11:08:13.465Z,8.40
2018-04-07T11:09:13.424Z,8.50
2018-04-07T11:10:13.820Z,8.40
2018-04-07T11:11:13.374Z,9.00
2018-04-07T11:12:13.370Z,9.40
2018-04-07T11:13:13.368Z,7.90
2018-04-07T11:14:13.347Z,8.20
2018-04-07T11:16:46.653Z,8.20
2018-04-07T11:18:58.587Z,10.10
2018-04-07T11:19:58.489Z,9.60
2018-04-07T11:20:58.470Z,7.80
2018-04-07T11:21:58.523Z,8.50
2018-04-07T11:22:58.469Z,8.50
2018-04-07T11:23:58.456Z,9.30
2018-04-07T11:24:58.432Z,8.10
2018-04-07T11:25:58.421Z,8.20
2018-04-07T11:26:58.411Z,9.80
2018-04-07T11:29:21.475Z,8.40
2018-04-07T11:31:54.709Z,7.70
2018-04-07T11:32:52.176Z,9.80
2018-04-07T11:34:47.914Z,9.10
2018-04-07T11:35:37.815Z,8.40
2018-04-07T11:36:37.845Z,10.60
2018-04-07T11:37:37.880Z,9.20
2018-04-07T11:38:37.825Z,8.10
2018-04-07T11:39:37.791Z,8.00
2018-04-07T11:40:37.760Z,7.90
2018-04-07T11:41:37.745Z,7.60
2018-04-07T11:42:37.749Z,9.60
2018-04-07T11:45:00.828Z,9.20
2018-04-07T11:47:35.340Z,8.00
2018-04-07T11:48:23.793Z,9.20
2018-04-07T11:49:23.792Z,8.00
2018-04-07T11:50:23.754Z,8.10
2018-04-07T11:51:23.767Z,9.90
2018-04-07T11:52:23.743Z,8.70
2018-04-07T11:53:23.724Z,8.00
2018-04-07T11:55:45.837Z,9.20
2018-04-07T11:58:18.967Z,8.60
2018-04-07T11:59:08.780Z,9.90
2018-04-07T12:01:31.879Z,9.40
2018-04-07T12:02:31.820Z,8.60
2018-04-07T12:03:31.847Z,8.70
2018-04-07T12:04:31.751Z,8.80
2018-04-07T12:05:31.784Z,8.80
2018-04-07T12:06:31.737Z,9.50
2018-04-07T12:07:31.740Z,8.90
2018-04-07T12:08:31.749Z,8.30
2018-04-07T12:09:31.712Z,8.50
2018-04-07T12:10:31.712Z,8.80
2018-04-07T12:11:39.373Z,7.40
2018-04-07T12:13:36.191Z,11.10
2018-04-07T12:14:26.061Z,8.30
2018-04-07T12:15:26.048Z,11.20
2018-04-07T12:16:26.033Z,10.20
2018-04-07T12:17:26.021Z,9.00
2018-04-07T12:18:26.003Z,7.80
2018-04-07T12:19:37.245Z,8.50
2018-04-07T12:21:30.666Z,10.40
2018-04-07T12:22:19.879Z,8.20
2018-04-07T12:24:53.586Z,8.20
2018-04-07T12:25:42.941Z,7.70
2018-04-07T12:28:16.842Z,7.70
2018-04-07T12:30:29.857Z,8.10
2018-04-07T12:32:55.454Z,10.40
2018-04-07T12:35:17.371Z,8.50
2018-04-07T12:37:39.378Z,8.20
2018-04-07T12:40:02.155Z,7.30
2018-04-07T12:42:24.594Z,8.00
2018-04-07T12:45:05.207Z,7.80
2018-04-07T12:47:48.721Z,6.90
2018-04-07T12:48:48.961Z,7.10
2018-04-07T12:49:49.052Z,7.60
2018-04-07T12:51:00.712Z,6.70
